Time;durP1;ratioP1;P1;durP2;ratioP2;P2;SDS_P1;SDS_P2;PMS_P1;PMS_P2;Temp;Humidity;BMP_temperature;BMP_pressure;BME280_temperature;BME280_humidity;BME280_pressure;Samples;Min_cycle;Max_cycle;Signal;HPM_P1;HPM_P2
2022/10/10 00:00:27;;;;;;;;;;;;;;;;;;1048963;28;2407;-53
2022/10/10 00:01:18;;;;;;;;;;;;;;;;;;1041941;28;1845;-53
2022/10/10 00:01:49;;;;;;;;;;;;;;;;;;1042408;28;1961;-54
2022/10/10 00:02:20;;;;;;;;;;;;;;;;;;1044675;28;1709;-56
2022/10/10 00:02:51;;;;;;;;;;;;;;;;;;1047419;28;2440;-54
2022/10/10 00:03:22;;;;;;;;;;;;;;;;;;1045256;28;1596;-55
2022/10/10 00:03:52;;;;;;;;;;;;;;;;;;1044344;28;1864;-54
2022/10/10 00:04:23;;;;;;;;;;;;;;;;;;1045355;28;1975;-56
2022/10/10 00:04:54;;;;;;;;;;;;;;;;;;1044749;28;3095;-53
2022/10/10 00:05:26;;;;;;;;;;;;;;;;;;1054036;28;2624;-56
2022/10/10 00:05:56;;;;;;;;;;;;;;;;;;1045259;28;2907;-56
2022/10/10 00:06:27;;;;;;;;;;;;;;;;;;1046709;28;1922;-56
2022/10/10 00:06:58;;;;;;;;;;;;;;;;;;1044762;28;2756;-56
2022/10/10 00:07:28;;;;;;;;;;;;;;;;;;1042346;28;1330;-51
2022/10/10 00:07:59;;;;;;;;;;;;;;;;;;1046543;28;2946;-56
2022/10/10 00:08:29;;;;;;;;;;;;;;;;;;1049713;28;2700;-54
2022/10/10 00:09:00;;;;;;;;;;;;;;;;;;1050335;28;2083;-55
2022/10/10 00:09:30;;;;;;;;;;;;;;;;;;1054797;28;2378;-54
2022/10/10 00:10:01;;;;;;;;;;;;;;;;;;1052844;28;2441;-54
2022/10/10 00:10:31;;;;;;;;;;;;;;;;;;1052817;28;2847;-54
2022/10/10 00:11:02;;;;;;;;;;;;;;;;;;1050966;28;2427;-55
2022/10/10 00:11:33;;;;;;;;;;;;;;;;;;1054698;28;2527;-54
2022/10/10 00:12:04;;;;;;;;;;;;;;;;;;1055868;28;2107;-54
2022/10/10 00:12:34;;;;;;;;;;;;;;;;;;1053965;28;1877;-54
2022/10/10 00:13:04;;;;;;;;;;;;;;;;;;1051371;28;2569;-55
2022/10/10 00:13:35;;;;;;;;;;;;;;;;;;1054239;28;2714;-57
2022/10/10 00:14:06;;;;;;;;;;;;;;;;;;1052620;28;2488;-54
2022/10/10 00:14:37;;;;;;;;;;;;;;;;;;1046199;28;1750;-55
2022/10/10 00:15:14;;;;;;;;;;;;;;;;;;1045103;28;1730;-56
2022/10/10 00:15:45;;;;;;;;;;;;;;;;;;1044764;28;2611;-55
2022/10/10 00:16:16;;;;;;;;;;;;;;;;;;1043474;28;3177;-53
2022/10/10 00:16:48;;;;;;;;;;;;;;;;;;1046204;28;2546;-54
2022/10/10 00:17:19;;;;;;;;;;;;;;;;;;1046091;28;1908;-54
2022/10/10 00:17:51;;;;;;;;;;;;;;;;;;1037224;28;2418;-53
2022/10/10 00:18:21;;;;;;;;;;;;;;;;;;1042681;28;2641;-56
2022/10/10 00:18:51;;;;;;;;;;;;;;;;;;1046496;28;1789;-54
2022/10/10 00:19:22;;;;;;;;;;;;;;;;;;1043973;28;2538;-55
2022/10/10 00:19:52;;;;;;;;;;;;;;;;;;1052284;28;1527;-52
2022/10/10 00:20:22;;;;;;;;;;;;;;;;;;1053509;28;2272;-53
2022/10/10 00:20:52;;;;;;;;;;;;;;;;;;1051468;28;2282;-56
2022/10/10 00:21:23;;;;;;;;;;;;;;;;;;1052181;28;2452;-55
2022/10/10 00:21:55;;;;;;;;;;;;;;;;;;1043388;28;1730;-51
2022/10/10 00:22:26;;;;;;;;;;;;;;;;;;1046302;28;2658;-54
2022/10/10 00:22:56;;;;;;;;;;;;;;;;;;1046627;28;2956;-54
2022/10/10 00:23:26;;;;;;;;;;;;;;;;;;1044656;28;2394;-53
2022/10/10 00:23:57;;;;;;;;;;;;;;;;;;1051257;28;1916;-56
2022/10/10 00:24:28;;;;;;;;;;;;;;;;;;1053713;28;2022;-55
2022/10/10 00:24:59;;;;;;;;;;;;;;;;;;1051630;28;1546;-53
2022/10/10 00:25:30;;;;;;;;;;;;;;;;;;1053263;28;2235;-55
2022/10/10 00:26:00;;;;;;;;;;;;;;;;;;1051422;28;1996;-56
2022/10/10 00:26:31;;;;;;;;;;;;;;;;;;1054305;28;2548;-54
2022/10/10 00:27:01;;;;;;;;;;;;;;;;;;1051332;28;1893;-56
2022/10/10 00:27:32;;;;;;;;;;;;;;;;;;1055790;28;1338;-56
2022/10/10 00:28:03;;;;;;;;;;;;;;;;;;1053755;28;1909;-54
2022/10/10 00:28:37;;;;;;;;;;;;;;;;;;1054317;28;2455;-53
2022/10/10 00:29:07;;;;;;;;;;;;;;;;;;1043560;28;2420;-57
2022/10/10 00:29:37;;;;;;;;;;;;;;;;;;1044389;28;2109;-56
2022/10/10 00:30:08;;;;;;;;;;;;;;;;;;1045559;28;2408;-52
2022/10/10 00:30:40;;;;;;;;;;;;;;;;;;1046310;28;2132;-56
2022/10/10 00:31:10;;;;;;;;;;;;;;;;;;1053528;28;2393;-53
2022/10/10 00:31:40;;;;;;;;;;;;;;;;;;1051721;28;2631;-55
2022/10/10 00:32:11;;;;;;;;;;;;;;;;;;1048960;28;2452;-55
2022/10/10 00:32:41;;;;;;;;;;;;;;;;;;1049790;28;2446;-52
2022/10/10 00:33:12;;;;;;;;;;;;;;;;;;1049121;28;2333;-55
2022/10/10 00:33:55;;;;;;;;;;;;;;;;;;1046965;28;2558;-54
2022/10/10 00:34:33;;;;;;;;;;;;;;;;;;1049365;28;2072;-52
2022/10/10 00:35:04;;;;;;;;;;;;;;;;;;1049564;28;2049;-55
2022/10/10 00:35:35;;;;;;;;;;;;;;;;;;1048395;28;2387;-55
2022/10/10 00:36:05;;;;;;;;;;;;;;;;;;1049220;28;1693;-51
2022/10/10 00:36:36;;;;;;;;;;;;;;;;;;1051076;28;1984;-54
2022/10/10 00:37:06;;;;;;;;;;;;;;;;;;1047562;28;2303;-52
2022/10/10 00:37:37;;;;;;;;;;;;;;;;;;1048343;28;2687;-55
2022/10/10 00:38:08;;;;;;;;;;;;;;;;;;1050575;28;1334;-53
2022/10/10 00:38:39;;;;;;;;;;;;;;;;;;1049997;28;2527;-57
2022/10/10 00:39:09;;;;;;;;;;;;;;;;;;1048810;28;2047;-56
2022/10/10 00:39:40;;;;;;;;;;;;;;;;;;1047734;28;1722;-52
2022/10/10 00:40:10;;;;;;;;;;;;;;;;;;1047050;28;2350;-57
2022/10/10 00:40:47;;;;;;;;;;;;;;;;;;1047645;28;1714;-55
2022/10/10 00:41:18;;;;;;;;;;;;;;;;;;1049130;28;2368;-55
2022/10/10 00:41:48;;;;;;;;;;;;;;;;;;1048728;28;2445;-57
2022/10/10 00:42:19;;;;;;;;;;;;;;;;;;1048308;28;2027;-52
2022/10/10 00:42:51;;;;;;;;;;;;;;;;;;1047118;28;1827;-55
2022/10/10 00:43:23;;;;;;;;;;;;;;;;;;1041688;28;2585;-56
2022/10/10 00:44:01;;;;;;;;;;;;;;;;;;1033798;28;2359;-56
2022/10/10 00:44:32;;;;;;;;;;;;;;;;;;1034582;28;2404;-55
2022/10/10 00:45:23;;;;;;;;;;;;;;;;;;1040249;28;1647;-54
2022/10/10 00:45:54;;;;;;;;;;;;;;;;;;1043233;28;1571;-56
2022/10/10 00:46:24;;;;;;;;;;;;;;;;;;1044778;28;2177;-54
2022/10/10 00:46:54;;;;;;;;;;;;;;;;;;1043602;28;2159;-55
2022/10/10 00:47:25;;;;;;;;;;;;;;;;;;1044775;28;2999;-55
2022/10/10 00:48:01;;;;;;;;;;;;;;;;;;1049413;28;2085;-57
2022/10/10 00:48:31;;;;;;;;;;;;;;;;;;1048274;28;2093;-55
2022/10/10 00:49:04;;;;;;;;;;;;;;;;;;1049056;28;2276;-55
2022/10/10 00:49:38;;;;;;;;;;;;;;;;;;1048177;28;2108;-53
2022/10/10 00:50:10;;;;;;;;;;;;;;;;;;1045952;28;1830;-54
2022/10/10 00:50:44;;;;;;;;;;;;;;;;;;1034976;28;2090;-57
2022/10/10 00:51:18;;;;;;;;;;;;;;;;;;1037523;28;1855;-55
2022/10/10 00:51:50;;;;;;;;;;;;;;;;;;1043655;28;2557;-56
2022/10/10 00:52:20;;;;;;;;;;;;;;;;;;1044832;28;1718;-54
2022/10/10 00:52:50;;;;;;;;;;;;;;;;;;1048781;28;2357;-54
2022/10/10 00:53:23;;;;;;;;;;;;;;;;;;1044365;28;2182;-57
2022/10/10 00:54:04;;;;;;;;;;;;;;;;;;1046522;28;2425;-54
2022/10/10 00:54:35;;;;;;;;;;;;;;;;;;1043388;28;2067;-53
2022/10/10 00:55:05;;;;;;;;;;;;;;;;;;1043799;28;2394;-56
2022/10/10 00:55:36;;;;;;;;;;;;;;;;;;1049399;28;2079;-55
2022/10/10 00:56:08;;;;;;;;;;;;;;;;;;1046931;28;2127;-55
2022/10/10 00:56:44;;;;;;;;;;;;;;;;;;1050426;28;2062;-56
2022/10/10 00:57:15;;;;;;;;;;;;;;;;;;1049345;28;2432;-55
2022/10/10 00:57:46;;;;;;;;;;;;;;;;;;1050984;28;1970;-53
2022/10/10 00:58:17;;;;;;;;;;;;;;;;;;1049200;28;2403;-56
2022/10/10 00:58:50;;;;;;;;;;;;;;;;;;1049602;28;2371;-55
2022/10/10 00:59:21;;;;;;;;;;;;;;;;;;1048114;28;2252;-55
2022/10/10 00:59:52;;;;;;;;;;;;;;;;;;1046705;28;2374;-55
2022/10/10 01:00:22;;;;;;;;;;;;;;;;;;1047280;28;2178;-56
2022/10/10 01:00:53;;;;;;;;;;;;;;;;;;1047795;28;2346;-54
2022/10/10 01:01:25;;;;;;;;;;;;;;;;;;1042099;28;2393;-55
2022/10/10 01:01:55;;;;;;;;;;;;;;;;;;1048914;28;1715;-56
2022/10/10 01:02:27;;;;;;;;;;;;;;;;;;1049783;28;2429;-55
2022/10/10 01:02:59;;;;;;;;;;;;;;;;;;1042948;28;1572;-57
2022/10/10 01:03:29;;;;;;;;;;;;;;;;;;1039820;28;2489;-57
2022/10/10 01:04:00;;;;;;;;;;;;;;;;;;1040686;28;2956;-56
2022/10/10 01:04:35;;;;;;;;;;;;;;;;;;1046667;28;2393;-55
2022/10/10 01:05:06;;;;;;;;;;;;;;;;;;1047659;28;2096;-57
2022/10/10 01:05:37;;;;;;;;;;;;;;;;;;1044909;28;1710;-55
2022/10/10 01:06:08;;;;;;;;;;;;;;;;;;1042625;28;2643;-52
2022/10/10 01:06:38;;;;;;;;;;;;;;;;;;1039902;28;1413;-57
2022/10/10 01:07:14;;;;;;;;;;;;;;;;;;1042007;28;2067;-57
2022/10/10 01:07:44;;;;;;;;;;;;;;;;;;1046075;28;1880;-56
2022/10/10 01:08:15;;;;;;;;;;;;;;;;;;1049916;28;2054;-55
2022/10/10 01:08:46;;;;;;;;;;;;;;;;;;1048994;28;2581;-53
2022/10/10 01:09:16;;;;;;;;;;;;;;;;;;1044098;28;2715;-55
2022/10/10 01:09:49;;;;;;;;;;;;;;;;;;1044449;28;1566;-55
2022/10/10 01:10:21;;;;;;;;;;;;;;;;;;1044633;28;2221;-54
2022/10/10 01:10:56;;;;;;;;;;;;;;;;;;1038901;28;2534;-55
2022/10/10 01:11:29;;;;;;;;;;;;;;;;;;1043977;28;2938;-54
2022/10/10 01:12:00;;;;;;;;;;;;;;;;;;1042458;28;1693;-56
2022/10/10 01:12:31;;;;;;;;;;;;;;;;;;1043618;28;2407;-52
2022/10/10 01:13:08;;;;;;;;;;;;;;;;;;1043719;28;2258;-53
2022/10/10 01:13:51;;;;;;;;;;;;;;;;;;1045371;28;2041;-55
2022/10/10 01:14:22;;;;;;;;;;;;;;;;;;1044939;28;2401;-55
2022/10/10 01:14:56;;;;;;;;;;;;;;;;;;1037749;28;2489;-55
2022/10/10 01:15:43;;;;;;;;;;;;;;;;;;1041450;28;2505;-55
2022/10/10 01:16:28;;;;;;;;;;;;;;;;;;1045630;28;1712;-53
2022/10/10 01:17:08;;;;;;;;;;;;;;;;;;1049692;28;2082;-56
2022/10/10 01:17:53;;;;;;;;;;;;;;;;;;1041301;28;2455;-56
2022/10/10 01:18:32;;;;;;;;;;;;;;;;;;1041016;28;2319;-53
2022/10/10 01:19:05;;;;;;;;;;;;;;;;;;1041004;28;2485;-55
2022/10/10 01:19:54;;;;;;;;;;;;;;;;;;1047830;28;2531;-52
2022/10/10 01:20:43;;;;;;;;;;;;;;;;;;1047926;28;1841;-53
2022/10/10 01:21:40;;;;;;;;;;;;;;;;;;1048030;28;2056;-54
2022/10/10 01:22:31;;;;;;;;;;;;;;;;;;1049391;28;1883;-55
2022/10/10 01:23:11;;;;;;;;;;;;;;;;;;1052059;28;1748;-56
2022/10/10 01:23:48;;;;;;;;;;;;;;;;;;1050408;28;2539;-55
2022/10/10 01:24:24;;;;;;;;;;;;;;;;;;1040655;28;2790;-55
2022/10/10 01:24:55;;;;;;;;;;;;;;;;;;1042734;28;1136;-55
2022/10/10 01:25:29;;;;;;;;;;;;;;;;;;1045145;28;2146;-55
2022/10/10 01:26:00;;;;;;;;;;;;;;;;;;1047800;28;2085;-56
2022/10/10 01:26:33;;;;;;;;;;;;;;;;;;1048845;28;2586;-53
2022/10/10 01:27:09;;;;;;;;;;;;;;;;;;1051711;28;2338;-57
2022/10/10 01:27:41;;;;;;;;;;;;;;;;;;1049552;28;1980;-55
2022/10/10 01:28:31;;;;;;;;;;;;;;;;;;1048810;28;2091;-54
2022/10/10 01:29:14;;;;;;;;;;;;;;;;;;1050082;28;2526;-56
2022/10/10 01:30:14;;;;;;;;;;;;;;;;;;1044285;28;2392;-55
2022/10/10 01:30:45;;;;;;;;;;;;;;;;;;1033432;28;2555;-55
2022/10/10 01:31:21;;;;;;;;;;;;;;;;;;1045090;28;2042;-54
2022/10/10 01:31:54;;;;;;;;;;;;;;;;;;1044419;28;2691;-54
2022/10/10 01:32:32;;;;;;;;;;;;;;;;;;1041987;28;2124;-55
2022/10/10 01:33:05;;;;;;;;;;;;;;;;;;1039406;28;2614;-54
2022/10/10 01:33:55;;;;;;;;;;;;;;;;;;1043276;28;2094;-51
2022/10/10 01:34:40;;;;;;;;;;;;;;;;;;1045819;28;2664;-56
2022/10/10 01:35:31;;;;;;;;;;;;;;;;;;1050980;28;2613;-54
2022/10/10 01:36:21;;;;;;;;;;;;;;;;;;1048264;28;3075;-53
2022/10/10 01:37:00;;;;;;;;;;;;;;;;;;1049556;28;2252;-50
2022/10/10 01:37:36;;;;;;;;;;;;;;;;;;1050780;28;2155;-56
2022/10/10 01:38:22;;;;;;;;;;;;;;;;;;1051438;28;1787;-55
2022/10/10 01:38:53;;;;;;;;;;;;;;;;;;1049128;28;2443;-55
2022/10/10 01:39:30;;;;;;;;;;;;;;;;;;1047645;28;1859;-55
2022/10/10 01:40:07;;;;;;;;;;;;;;;;;;1036700;28;2222;-55
2022/10/10 01:40:47;;;;;;;;;;;;;;;;;;1038494;28;2073;-55
2022/10/10 01:41:25;;;;;;;;;;;;;;;;;;1039669;28;2092;-54
2022/10/10 01:42:02;;;;;;;;;;;;;;;;;;1043539;28;2981;-57
2022/10/10 01:42:48;;;;;;;;;;;;;;;;;;1044789;28;1593;-52
2022/10/10 01:43:18;;;;;;;;;;;;;;;;;;1048160;28;2300;-54
2022/10/10 01:43:52;;;;;;;;;;;;;;;;;;1049704;28;2862;-53
2022/10/10 01:44:22;;;;;;;;;;;;;;;;;;1047930;28;2458;-54
2022/10/10 01:44:53;;;;;;;;;;;;;;;;;;1047920;28;2450;-52
2022/10/10 01:45:24;;;;;;;;;;;;;;;;;;1049600;28;2684;-54
2022/10/10 01:45:54;;;;;;;;;;;;;;;;;;1047486;28;2451;-54
2022/10/10 01:46:24;;;;;;;;;;;;;;;;;;1049851;28;2297;-56
2022/10/10 01:46:56;;;;;;;;;;;;;;;;;;1048053;28;2687;-54
2022/10/10 01:47:27;;;;;;;;;;;;;;;;;;1049139;28;2481;-56
2022/10/10 01:48:00;;;;;;;;;;;;;;;;;;1044958;28;2461;-57
2022/10/10 01:48:31;;;;;;;;;;;;;;;;;;1044789;28;2241;-52
2022/10/10 01:49:05;;;;;;;;;;;;;;;;;;1042949;28;1706;-56
2022/10/10 01:49:37;;;;;;;;;;;;;;;;;;1038265;28;2671;-55
2022/10/10 01:50:13;;;;;;;;;;;;;;;;;;1047172;28;2381;-54
2022/10/10 01:50:55;;;;;;;;;;;;;;;;;;1048736;28;2022;-53
2022/10/10 01:52:01;;;;;;;;;;;;;;;;;;1052584;28;2029;-56
2022/10/10 01:52:40;;;;;;;;;;;;;;;;;;1036618;28;2813;-56
2022/10/10 01:53:23;;;;;;;;;;;;;;;;;;1039264;28;2431;-54
2022/10/10 01:54:03;;;;;;;;;;;;;;;;;;1036598;28;2194;-54
2022/10/10 01:54:33;;;;;;;;;;;;;;;;;;1036347;28;2438;-57
2022/10/10 01:55:18;;;;;;;;;;;;;;;;;;1036567;28;2622;-55
2022/10/10 01:56:01;;;;;;;;;;;;;;;;;;1041895;28;2105;-54
2022/10/10 01:56:40;;;;;;;;;;;;;;;;;;1041331;28;2501;-56
2022/10/10 01:57:45;;;;;;;;;;;;;;;;;;1044573;28;2486;-56
2022/10/10 01:58:26;;;;;;;;;;;;;;;;;;1037672;28;2339;-55
2022/10/10 01:58:59;;;;;;;;;;;;;;;;;;1037978;28;2223;-56
2022/10/10 01:59:38;;;;;;;;;;;;;;;;;;1037245;28;2950;-54
2022/10/10 02:00:10;;;;;;;;;;;;;;;;;;1037885;28;2990;-55
2022/10/10 02:01:03;;;;;;;;;;;;;;;;;;1037731;28;2339;-54
2022/10/10 02:01:45;;;;;;;;;;;;;;;;;;1049831;28;2331;-56
2022/10/10 02:02:34;;;;;;;;;;;;;;;;;;1049032;28;2658;-54
2022/10/10 02:03:17;;;;;;;;;;;;;;;;;;1048982;28;1625;-55
2022/10/10 02:03:53;;;;;;;;;;;;;;;;;;1047460;28;2491;-54
2022/10/10 02:04:27;;;;;;;;;;;;;;;;;;1044841;28;1973;-55
2022/10/10 02:05:01;;;;;;;;;;;;;;;;;;1042036;28;1980;-53
2022/10/10 02:05:50;;;;;;;;;;;;;;;;;;1040910;28;2781;-54
2022/10/10 02:06:27;;;;;;;;;;;;;;;;;;1045908;28;1916;-54
2022/10/10 02:07:05;;;;;;;;;;;;;;;;;;1049425;28;2732;-53
2022/10/10 02:07:42;;;;;;;;;;;;;;;;;;1046260;28;2371;-55
2022/10/10 02:08:32;;;;;;;;;;;;;;;;;;1046783;28;1959;-55
2022/10/10 02:09:05;;;;;;;;;;;;;;;;;;1049003;28;2386;-56
2022/10/10 02:09:37;;;;;;;;;;;;;;;;;;1049637;28;2729;-55
2022/10/10 02:10:08;;;;;;;;;;;;;;;;;;1048668;28;2495;-55
2022/10/10 02:10:42;;;;;;;;;;;;;;;;;;1050074;28;2048;-53
2022/10/10 02:11:12;;;;;;;;;;;;;;;;;;1049998;28;1993;-56
2022/10/10 02:11:43;;;;;;;;;;;;;;;;;;1046811;28;2410;-55
2022/10/10 02:12:18;;;;;;;;;;;;;;;;;;1049190;28;2424;-56
2022/10/10 02:12:49;;;;;;;;;;;;;;;;;;1048370;28;2097;-56
2022/10/10 02:13:20;;;;;;;;;;;;;;;;;;1047796;28;1875;-56
2022/10/10 02:14:17;;;;;;;;;;;;;;;;;;1049734;28;2332;-54
2022/10/10 02:14:50;;;;;;;;;;;;;;;;;;1049507;28;2043;-54
2022/10/10 02:15:22;;;;;;;;;;;;;;;;;;1049633;28;2306;-52
2022/10/10 02:15:54;;;;;;;;;;;;;;;;;;1048971;28;2521;-56
2022/10/10 02:16:28;;;;;;;;;;;;;;;;;;1049540;28;1757;-56
2022/10/10 02:16:59;;;;;;;;;;;;;;;;;;1046918;28;2433;-55
2022/10/10 02:17:32;;;;;;;;;;;;;;;;;;1046003;28;2611;-53
2022/10/10 02:18:04;;;;;;;;;;;;;;;;;;1048232;28;2630;-56
2022/10/10 02:18:34;;;;;;;;;;;;;;;;;;1049130;28;1794;-54
2022/10/10 02:19:07;;;;;;;;;;;;;;;;;;1048350;28;1896;-54
2022/10/10 02:19:41;;;;;;;;;;;;;;;;;;1046041;28;2054;-53
2022/10/10 02:20:15;;;;;;;;;;;;;;;;;;1041092;28;2215;-55
2022/10/10 02:20:46;;;;;;;;;;;;;;;;;;1037551;28;2765;-53
2022/10/10 02:21:17;;;;;;;;;;;;;;;;;;1040102;28;2467;-53
2022/10/10 02:21:49;;;;;;;;;;;;;;;;;;1047663;28;2080;-54
2022/10/10 02:22:20;;;;;;;;;;;;;;;;;;1045675;28;2475;-56
2022/10/10 02:22:52;;;;;;;;;;;;;;;;;;1043768;28;2561;-56
2022/10/10 02:23:23;;;;;;;;;;;;;;;;;;1044387;28;1759;-54
2022/10/10 02:23:55;;;;;;;;;;;;;;;;;;1041421;28;2715;-55
2022/10/10 02:24:25;;;;;;;;;;;;;;;;;;1042402;28;1920;-55
2022/10/10 02:24:55;;;;;;;;;;;;;;;;;;1046882;28;2405;-53
2022/10/10 02:25:27;;;;;;;;;;;;;;;;;;1046890;28;2589;-55
2022/10/10 02:25:58;;;;;;;;;;;;;;;;;;1050279;28;1982;-53
2022/10/10 02:26:30;;;;;;;;;;;;;;;;;;1048095;28;2206;-54
2022/10/10 02:27:02;;;;;;;;;;;;;;;;;;1048718;28;2193;-55
2022/10/10 02:27:42;;;;;;;;;;;;;;;;;;1048767;28;2945;-53
2022/10/10 02:28:35;;;;;;;;;;;;;;;;;;1048020;28;1766;-56
2022/10/10 02:29:10;;;;;;;;;;;;;;;;;;1048778;28;2236;-56
2022/10/10 02:29:42;;;;;;;;;;;;;;;;;;1047078;28;1955;-54
2022/10/10 02:30:13;;;;;;;;;;;;;;;;;;1048756;28;2468;-53
2022/10/10 02:30:44;;;;;;;;;;;;;;;;;;1047724;28;2523;-56
2022/10/10 02:31:16;;;;;;;;;;;;;;;;;;1048398;28;2137;-54
2022/10/10 02:31:51;;;;;;;;;;;;;;;;;;1048208;28;2386;-56
2022/10/10 02:32:30;;;;;;;;;;;;;;;;;;1049031;28;2579;-53
2022/10/10 02:33:03;;;;;;;;;;;;;;;;;;1042780;28;3123;-55
2022/10/10 02:33:43;;;;;;;;;;;;;;;;;;1041066;28;2338;-54
2022/10/10 02:34:30;;;;;;;;;;;;;;;;;;1041262;28;2685;-57
2022/10/10 02:35:10;;;;;;;;;;;;;;;;;;1044407;28;2226;-56
2022/10/10 02:35:42;;;;;;;;;;;;;;;;;;1043783;28;2194;-51
2022/10/10 02:36:13;;;;;;;;;;;;;;;;;;1043312;28;2203;-53
2022/10/10 02:36:45;;;;;;;;;;;;;;;;;;1045697;28;2149;-55
2022/10/10 02:37:16;;;;;;;;;;;;;;;;;;1038092;28;2312;-57
2022/10/10 02:37:47;;;;;;;;;;;;;;;;;;1041900;28;2624;-54
2022/10/10 02:38:19;;;;;;;;;;;;;;;;;;1043057;28;3005;-55
2022/10/10 02:38:51;;;;;;;;;;;;;;;;;;1046747;28;2106;-56
2022/10/10 02:39:25;;;;;;;;;;;;;;;;;;1048980;28;2402;-55
2022/10/10 02:39:57;;;;;;;;;;;;;;;;;;1049032;28;2107;-55
2022/10/10 02:40:29;;;;;;;;;;;;;;;;;;1044909;28;2457;-52
2022/10/10 02:41:02;;;;;;;;;;;;;;;;;;1044189;28;2039;-53
2022/10/10 02:41:34;;;;;;;;;;;;;;;;;;1047785;28;1297;-54
2022/10/10 02:42:05;;;;;;;;;;;;;;;;;;1045161;28;2076;-52
2022/10/10 02:42:37;;;;;;;;;;;;;;;;;;1045910;28;2388;-54
2022/10/10 02:43:09;;;;;;;;;;;;;;;;;;1046430;28;1894;-54
2022/10/10 02:43:40;;;;;;;;;;;;;;;;;;1046110;28;2175;-55
2022/10/10 02:44:12;;;;;;;;;;;;;;;;;;1044502;28;2771;-53
2022/10/10 02:44:43;;;;;;;;;;;;;;;;;;1047257;28;2595;-55
2022/10/10 02:45:14;;;;;;;;;;;;;;;;;;1046776;28;2018;-56
2022/10/10 02:45:44;;;;;;;;;;;;;;;;;;1046940;28;2128;-55
2022/10/10 02:46:15;;;;;;;;;;;;;;;;;;1046824;28;2092;-55
2022/10/10 02:46:45;;;;;;;;;;;;;;;;;;1046972;28;1779;-54
2022/10/10 02:47:16;;;;;;;;;;;;;;;;;;1047733;28;1268;-55
2022/10/10 02:47:47;;;;;;;;;;;;;;;;;;1046324;28;2376;-56
2022/10/10 02:48:18;;;;;;;;;;;;;;;;;;1041480;28;2383;-54
2022/10/10 02:48:49;;;;;;;;;;;;;;;;;;1042203;28;2608;-54
2022/10/10 02:49:29;;;;;;;;;;;;;;;;;;1044665;28;1760;-54
2022/10/10 02:49:59;;;;;;;;;;;;;;;;;;1040620;28;2434;-56
2022/10/10 02:50:30;;;;;;;;;;;;;;;;;;1041891;28;2490;-56
2022/10/10 02:51:01;;;;;;;;;;;;;;;;;;1046978;28;1964;-55
2022/10/10 02:51:31;;;;;;;;;;;;;;;;;;1047269;28;2044;-52
2022/10/10 02:52:02;;;;;;;;;;;;;;;;;;1044889;28;2092;-57
2022/10/10 02:52:33;;;;;;;;;;;;;;;;;;1044898;28;2374;-54
2022/10/10 02:53:04;;;;;;;;;;;;;;;;;;1037900;28;2329;-55
2022/10/10 02:53:37;;;;;;;;;;;;;;;;;;1038465;28;2287;-52
2022/10/10 02:54:08;;;;;;;;;;;;;;;;;;1035491;28;2034;-55
2022/10/10 02:54:39;;;;;;;;;;;;;;;;;;1037555;28;2429;-56
2022/10/10 02:55:09;;;;;;;;;;;;;;;;;;1037593;28;2713;-55
2022/10/10 02:55:40;;;;;;;;;;;;;;;;;;1041685;28;1899;-56
2022/10/10 02:56:11;;;;;;;;;;;;;;;;;;1046104;28;2078;-55
2022/10/10 02:56:41;;;;;;;;;;;;;;;;;;1045728;28;1686;-54
2022/10/10 02:57:12;;;;;;;;;;;;;;;;;;1045922;28;2477;-54
2022/10/10 02:57:42;;;;;;;;;;;;;;;;;;1044719;28;2351;-55
2022/10/10 02:58:13;;;;;;;;;;;;;;;;;;1046209;28;2970;-56
2022/10/10 02:58:45;;;;;;;;;;;;;;;;;;1044548;28;2483;-53
2022/10/10 02:59:17;;;;;;;;;;;;;;;;;;1040795;28;1872;-56
2022/10/10 02:59:48;;;;;;;;;;;;;;;;;;1037390;28;2583;-56
2022/10/10 03:00:18;;;;;;;;;;;;;;;;;;1036136;28;2216;-56
2022/10/10 03:00:49;;;;;;;;;;;;;;;;;;1035379;28;2491;-54
2022/10/10 03:01:19;;;;;;;;;;;;;;;;;;1039829;28;2298;-55
2022/10/10 03:01:50;;;;;;;;;;;;;;;;;;1045676;28;2396;-55
2022/10/10 03:02:21;;;;;;;;;;;;;;;;;;1047939;28;2073;-53
2022/10/10 03:02:52;;;;;;;;;;;;;;;;;;1041113;28;2728;-54
2022/10/10 03:03:22;;;;;;;;;;;;;;;;;;1042916;28;2465;-52
2022/10/10 03:03:53;;;;;;;;;;;;;;;;;;1041325;28;2538;-55
2022/10/10 03:04:23;;;;;;;;;;;;;;;;;;1042594;28;1923;-54
2022/10/10 03:04:54;;;;;;;;;;;;;;;;;;1046643;28;2133;-56
2022/10/10 03:05:24;;;;;;;;;;;;;;;;;;1046305;28;2504;-54
2022/10/10 03:05:55;;;;;;;;;;;;;;;;;;1045752;28;2015;-54
2022/10/10 03:06:25;;;;;;;;;;;;;;;;;;1045645;28;2532;-54
2022/10/10 03:06:55;;;;;;;;;;;;;;;;;;1045390;28;3258;-55
2022/10/10 03:07:25;;;;;;;;;;;;;;;;;;1045589;28;2458;-54
2022/10/10 03:07:56;;;;;;;;;;;;;;;;;;1045389;28;2769;-55
2022/10/10 03:08:27;;;;;;;;;;;;;;;;;;1042429;28;2426;-55
2022/10/10 03:08:59;;;;;;;;;;;;;;;;;;1039269;28;1791;-54
2022/10/10 03:09:31;;;;;;;;;;;;;;;;;;1034790;28;2649;-55
2022/10/10 03:10:02;;;;;;;;;;;;;;;;;;1030440;28;2539;-54
2022/10/10 03:10:32;;;;;;;;;;;;;;;;;;1038576;28;2698;-52
2022/10/10 03:11:02;;;;;;;;;;;;;;;;;;1043063;28;1554;-55
2022/10/10 03:11:33;;;;;;;;;;;;;;;;;;1043212;28;2432;-56
2022/10/10 03:12:03;;;;;;;;;;;;;;;;;;1046852;28;2547;-53
2022/10/10 03:12:41;;;;;;;;;;;;;;;;;;1045300;28;1852;-55
2022/10/10 03:13:13;;;;;;;;;;;;;;;;;;1041189;28;2564;-55
2022/10/10 03:13:45;;;;;;;;;;;;;;;;;;1039118;28;2474;-56
2022/10/10 03:14:16;;;;;;;;;;;;;;;;;;1039016;28;1703;-55
2022/10/10 03:14:47;;;;;;;;;;;;;;;;;;1031534;28;2103;-55
2022/10/10 03:15:17;;;;;;;;;;;;;;;;;;1036730;28;2178;-57
2022/10/10 03:15:48;;;;;;;;;;;;;;;;;;1038001;28;2459;-53
2022/10/10 03:16:18;;;;;;;;;;;;;;;;;;1037409;28;2538;-54
2022/10/10 03:16:49;;;;;;;;;;;;;;;;;;1047028;28;2761;-55
2022/10/10 03:17:20;;;;;;;;;;;;;;;;;;1044304;28;1671;-57
2022/10/10 03:17:51;;;;;;;;;;;;;;;;;;1046186;28;1593;-55
2022/10/10 03:18:21;;;;;;;;;;;;;;;;;;1044734;28;2401;-56
2022/10/10 03:18:51;;;;;;;;;;;;;;;;;;1044607;28;2771;-54
2022/10/10 03:19:22;;;;;;;;;;;;;;;;;;1044333;28;2239;-54
2022/10/10 03:19:52;;;;;;;;;;;;;;;;;;1038711;28;1765;-55
2022/10/10 03:20:22;;;;;;;;;;;;;;;;;;1045089;28;2087;-55
2022/10/10 03:20:57;;;;;;;;;;;;;;;;;;1038904;28;2826;-56
2022/10/10 03:21:28;;;;;;;;;;;;;;;;;;1041380;28;2096;-55
2022/10/10 03:21:58;;;;;;;;;;;;;;;;;;1043758;28;2455;-52
2022/10/10 03:22:28;;;;;;;;;;;;;;;;;;1043498;28;2964;-55
2022/10/10 03:22:59;;;;;;;;;;;;;;;;;;1045465;28;1678;-55
2022/10/10 03:23:29;;;;;;;;;;;;;;;;;;1044227;28;3972;-55
2022/10/10 03:23:59;;;;;;;;;;;;;;;;;;1045468;28;968;-56
2022/10/10 03:24:30;;;;;;;;;;;;;;;;;;1045193;28;2332;-52
2022/10/10 03:25:06;;;;;;;;;;;;;;;;;;1043258;28;1972;-53
2022/10/10 03:25:40;;;;;;;;;;;;;;;;;;1045115;28;2486;-55
2022/10/10 03:26:11;;;;;;;;;;;;;;;;;;1046936;28;1845;-55
2022/10/10 03:26:42;;;;;;;;;;;;;;;;;;1045691;28;2366;-56
2022/10/10 03:27:13;;;;;;;;;;;;;;;;;;1043959;28;1906;-51
2022/10/10 03:27:43;;;;;;;;;;;;;;;;;;1044202;28;2631;-56
2022/10/10 03:28:15;;;;;;;;;;;;;;;;;;1044540;28;1682;-53
2022/10/10 03:28:45;;;;;;;;;;;;;;;;;;1045247;28;3064;-56
2022/10/10 03:29:15;;;;;;;;;;;;;;;;;;1046428;28;2491;-55
2022/10/10 03:29:45;;;;;;;;;;;;;;;;;;1044221;28;3078;-54
2022/10/10 03:30:16;;;;;;;;;;;;;;;;;;1045055;28;1943;-54
2022/10/10 03:30:47;;;;;;;;;;;;;;;;;;1046555;28;2011;-55
2022/10/10 03:31:17;;;;;;;;;;;;;;;;;;1044955;28;2540;-55
2022/10/10 03:31:48;;;;;;;;;;;;;;;;;;1044503;28;2388;-53
2022/10/10 03:32:19;;;;;;;;;;;;;;;;;;1044523;28;2280;-55
2022/10/10 03:32:49;;;;;;;;;;;;;;;;;;1044951;28;1672;-54
2022/10/10 03:33:20;;;;;;;;;;;;;;;;;;1046231;28;1875;-56
2022/10/10 03:34:04;;;;;;;;;;;;;;;;;;1041068;28;3142;-52
2022/10/10 03:34:42;;;;;;;;;;;;;;;;;;1041562;28;2168;-54
2022/10/10 03:35:12;;;;;;;;;;;;;;;;;;1041579;28;2371;-55
2022/10/10 03:35:42;;;;;;;;;;;;;;;;;;1046881;28;2098;-52
2022/10/10 03:36:13;;;;;;;;;;;;;;;;;;1044396;28;1621;-53
2022/10/10 03:36:44;;;;;;;;;;;;;;;;;;1048787;28;2485;-54
2022/10/10 03:37:14;;;;;;;;;;;;;;;;;;1046800;28;2578;-54
2022/10/10 03:37:44;;;;;;;;;;;;;;;;;;1045923;28;3035;-55
2022/10/10 03:38:15;;;;;;;;;;;;;;;;;;1047238;28;1722;-56
2022/10/10 03:38:45;;;;;;;;;;;;;;;;;;1050133;28;2579;-53
2022/10/10 03:39:15;;;;;;;;;;;;;;;;;;1047512;28;2284;-56
2022/10/10 03:39:46;;;;;;;;;;;;;;;;;;1048596;28;2506;-54
2022/10/10 03:40:16;;;;;;;;;;;;;;;;;;1049854;28;2025;-55
2022/10/10 03:40:46;;;;;;;;;;;;;;;;;;1048106;28;1639;-56
2022/10/10 03:41:16;;;;;;;;;;;;;;;;;;1049518;28;2484;-54
2022/10/10 03:41:50;;;;;;;;;;;;;;;;;;1047894;28;1612;-54
2022/10/10 03:42:21;;;;;;;;;;;;;;;;;;1049680;28;2363;-56
2022/10/10 03:42:51;;;;;;;;;;;;;;;;;;1048305;28;2550;-54
2022/10/10 03:43:22;;;;;;;;;;;;;;;;;;1050116;28;2350;-55
2022/10/10 03:43:53;;;;;;;;;;;;;;;;;;1048885;28;2576;-54
2022/10/10 03:44:23;;;;;;;;;;;;;;;;;;1050369;28;2044;-56
2022/10/10 03:44:54;;;;;;;;;;;;;;;;;;1046621;28;1761;-57
2022/10/10 03:45:24;;;;;;;;;;;;;;;;;;1050327;28;1910;-55
2022/10/10 03:45:55;;;;;;;;;;;;;;;;;;1046744;28;1697;-57
2022/10/10 03:46:26;;;;;;;;;;;;;;;;;;1048595;28;1957;-56
2022/10/10 03:46:57;;;;;;;;;;;;;;;;;;1048598;28;2520;-55
2022/10/10 03:47:28;;;;;;;;;;;;;;;;;;1047019;28;2560;-56
2022/10/10 03:47:58;;;;;;;;;;;;;;;;;;1049582;28;2729;-56
2022/10/10 03:48:29;;;;;;;;;;;;;;;;;;1051625;28;1892;-55
2022/10/10 03:49:00;;;;;;;;;;;;;;;;;;1045243;28;2507;-57
2022/10/10 03:49:30;;;;;;;;;;;;;;;;;;1050151;28;1915;-53
2022/10/10 03:50:00;;;;;;;;;;;;;;;;;;1048027;28;2439;-55
2022/10/10 03:50:31;;;;;;;;;;;;;;;;;;1048518;28;1685;-54
2022/10/10 03:51:01;;;;;;;;;;;;;;;;;;1047872;28;2425;-56
2022/10/10 03:51:31;;;;;;;;;;;;;;;;;;1048055;28;2379;-55
2022/10/10 03:52:02;;;;;;;;;;;;;;;;;;1049900;28;2531;-53